Time;durP1;ratioP1;P1;durP2;ratioP2;P2;SDS_P1;SDS_P2;PMS_P1;PMS_P2;Temp;Humidity;BMP_temperature;BMP_pressure;BME280_temperature;BME280_humidity;BME280_pressure;Samples;Min_cycle;Max_cycle;Signal;HPM_P1;HPM_P2
2022/02/03 00:00:22;;;;;;;;;;;;;;;18.31;36.29;100075.56;5007009;28;861;-56
2022/02/03 00:02:59;;;;;;;;;;;;;;;18.18;37.06;100090.13;4996878;28;759;-55
2022/02/03 00:06:01;;;;;;;;;;;;;;;18.29;36.67;100072.31;5002890;28;1914;-55
2022/02/03 00:24:17;;;;;;;;;;;;;;;18.06;37.08;100091.41;5015534;28;1500;-55
2022/02/03 00:27:18;;;;;;;;;;;;;;;18.13;36.77;100069.00;4999114;28;1906;-55
2022/02/03 00:29:57;;;;;;;;;;;;;;;17.95;37.18;100077.00;4983017;28;1167;-55
2022/02/03 00:32:45;;;;;;;;;;;;;;;18.16;36.63;100086.84;5015572;28;862;-56
2022/02/03 00:38:03;;;;;;;;;;;;;;;18.15;36.83;100088.00;4997645;28;640;-56
2022/02/03 00:51:09;;;;;;;;;;;;;;;17.88;36.94;100078.47;5015082;28;826;-55
2022/02/03 00:53:35;;;;;;;;;;;;;;;17.88;37.20;100094.97;5015632;28;792;-56
2022/02/03 00:56:07;;;;;;;;;;;;;;;17.80;37.36;100096.47;5001775;28;1059;-56
2022/02/03 00:58:35;;;;;;;;;;;;;;;17.83;37.29;100097.81;4996614;28;847;-56
2022/02/03 01:01:01;;;;;;;;;;;;;;;17.89;37.16;100093.84;5001094;28;960;-55
2022/02/03 01:03:27;;;;;;;;;;;;;;;17.93;37.05;100103.19;4978810;28;871;-55
2022/02/03 01:05:54;;;;;;;;;;;;;;;17.85;37.14;100101.06;4996062;28;1906;-56
2022/02/03 01:08:22;;;;;;;;;;;;;;;17.79;37.30;100109.41;4999362;28;827;-56
2022/02/03 01:10:56;;;;;;;;;;;;;;;18.04;36.51;100112.91;5008886;28;923;-56
2022/02/03 01:14:12;;;;;;;;;;;;;;;17.83;36.94;100120.63;5014975;28;783;-56
2022/02/03 01:34:59;;;;;;;;;;;;;;;17.79;37.13;100100.31;4987659;28;1404;-55
2022/02/03 01:46:00;;;;;;;;;;;;;;;17.83;36.78;100095.06;5017990;28;1917;-56
2022/02/03 01:48:19;;;;;;;;;;;;;;;17.84;37.08;100096.66;4980668;28;1330;-56
2022/02/03 01:53:49;;;;;;;;;;;;;;;17.92;36.68;100096.03;4941288;29;1011;-56
2022/02/03 01:56:15;;;;;;;;;;;;;;;17.74;36.87;100076.47;4939050;29;820;-56
2022/02/03 01:58:47;;;;;;;;;;;;;;;17.64;37.00;100071.13;4970393;28;1138;-56
2022/02/03 02:01:13;;;;;;;;;;;;;;;17.77;36.78;100061.31;5013344;28;814;-55
2022/02/03 02:03:45;;;;;;;;;;;;;;;17.82;36.85;100068.66;5018065;28;819;-55
2022/02/03 02:06:17;;;;;;;;;;;;;;;17.87;36.94;100049.34;5000017;28;1910;-55
2022/02/03 02:09:09;;;;;;;;;;;;;;;17.72;36.95;100047.66;5000617;28;1413;-55
2022/02/03 02:11:51;;;;;;;;;;;;;;;17.83;36.61;100037.31;4983573;28;1169;-55
2022/02/03 02:19:48;;;;;;;;;;;;;;;17.87;36.86;100072.16;4981391;28;850;-56
2022/02/03 02:39:05;;;;;;;;;;;;;;;17.95;36.71;100092.72;5011994;28;874;-55
2022/02/03 02:42:30;;;;;;;;;;;;;;;17.74;36.95;100098.47;5000724;28;834;-56
2022/02/03 02:44:33;;;;;;;;;;;;;;;17.75;36.69;100100.13;5011235;28;1585;-56
2022/02/03 02:46:58;;;;;;;;;;;;;;;17.69;36.89;100106.00;4980540;28;1906;-56
2022/02/03 02:49:44;;;;;;;;;;;;;;;17.72;37.08;100108.94;5001709;28;807;-56
2022/02/03 02:52:13;;;;;;;;;;;;;;;17.88;36.50;100119.72;4995747;28;843;-56
2022/02/03 02:54:56;;;;;;;;;;;;;;;17.78;36.90;100127.03;5016905;28;834;-56
2022/02/03 03:30:29;;;;;;;;;;;;;;;17.70;36.85;100163.44;5000183;28;877;-56
2022/02/03 03:33:20;;;;;;;;;;;;;;;17.71;37.01;100165.06;4997759;28;818;-55
2022/02/03 03:35:59;;;;;;;;;;;;;;;17.77;36.58;100161.13;4996583;28;751;-55
2022/02/03 03:38:27;;;;;;;;;;;;;;;17.73;36.95;100154.59;5016150;28;881;-56
2022/02/03 03:40:53;;;;;;;;;;;;;;;17.76;36.73;100170.47;5013195;28;998;-56
2022/02/03 03:43:25;;;;;;;;;;;;;;;17.78;36.64;100168.28;4997649;28;758;-56
2022/02/03 03:45:51;;;;;;;;;;;;;;;17.81;36.58;100172.38;4997745;28;1906;-55
2022/02/03 03:48:17;;;;;;;;;;;;;;;17.85;36.54;100178.06;4979605;28;1039;-56
2022/02/03 03:50:46;;;;;;;;;;;;;;;17.97;36.41;100186.75;4997467;28;1031;-55
2022/02/03 03:53:16;;;;;;;;;;;;;;;17.89;36.49;100190.97;4995820;28;817;-55
2022/02/03 03:55:52;;;;;;;;;;;;;;;17.90;36.12;100178.00;4995999;28;838;-55
2022/02/03 03:59:06;;;;;;;;;;;;;;;17.91;36.51;100193.44;4996628;28;743;-57
2022/02/03 05:04:14;;;;;;;;;;;;;;;17.99;36.20;100299.22;5012465;28;818;-55
2022/02/03 05:07:44;;;;;;;;;;;;;;;18.06;35.83;100303.25;5015470;28;1969;-53
2022/02/03 05:11:17;;;;;;;;;;;;;;;18.00;36.14;100306.38;5013383;28;1143;-57
2022/02/03 05:16:06;;;;;;;;;;;;;;;18.10;35.94;100344.75;5007569;28;882;-55
2022/02/03 05:19:18;;;;;;;;;;;;;;;18.44;34.86;100338.28;4999770;28;1415;-54
2022/02/03 05:44:56;;;;;;;;;;;;;;;18.07;35.77;100372.84;5017272;28;845;-54
2022/02/03 06:08:36;;;;;;;;;;;;;;;17.92;36.13;100428.84;5011615;28;835;-54
2022/02/03 06:13:53;;;;;;;;;;;;;;;17.75;36.19;100432.88;5013439;28;935;-56
2022/02/03 06:16:36;;;;;;;;;;;;;;;17.74;36.41;100428.47;4982851;28;829;-55
2022/02/03 06:21:52;;;;;;;;;;;;;;;18.13;36.06;100455.06;5017535;28;811;-55
2022/02/03 06:29:38;;;;;;;;;;;;;;;18.05;36.18;100469.44;4993964;28;905;-54
2022/02/03 06:32:04;;;;;;;;;;;;;;;18.03;36.41;100476.34;5009504;28;1038;-54
2022/02/03 06:34:29;;;;;;;;;;;;;;;17.98;36.57;100479.97;5017591;28;819;-54
2022/02/03 06:36:55;;;;;;;;;;;;;;;17.91;36.30;100474.00;5016893;28;1076;-54
2022/02/03 06:39:21;;;;;;;;;;;;;;;17.99;36.14;100476.09;5003710;28;1320;-54
2022/02/03 06:41:50;;;;;;;;;;;;;;;17.95;36.36;100481.38;5011268;28;1442;-55
2022/02/03 06:44:16;;;;;;;;;;;;;;;17.92;36.38;100476.47;4999912;28;1231;-55
2022/02/03 06:46:46;;;;;;;;;;;;;;;17.91;36.19;100479.50;5012684;28;1917;-57
2022/02/03 06:52:07;;;;;;;;;;;;;;;17.99;35.96;100478.03;4982443;28;1529;-55
2022/02/03 06:54:53;;;;;;;;;;;;;;;17.90;36.08;100477.81;5011956;28;1361;-55
2022/02/03 06:57:26;;;;;;;;;;;;;;;17.95;36.02;100486.06;5000376;28;869;-56
2022/02/03 06:59:59;;;;;;;;;;;;;;;17.94;36.10;100489.91;5007814;28;1409;-55
2022/02/03 07:02:28;;;;;;;;;;;;;;;17.94;36.10;100495.44;5004700;28;1471;-56
2022/02/03 07:04:54;;;;;;;;;;;;;;;17.84;36.78;100498.22;5011022;28;1902;-54
2022/02/03 07:07:19;;;;;;;;;;;;;;;17.92;36.47;100492.13;5010250;28;1223;-55
2022/02/03 07:09:48;;;;;;;;;;;;;;;17.89;36.68;100499.03;5016271;28;871;-53
2022/02/03 07:12:14;;;;;;;;;;;;;;;17.97;36.37;100494.03;5014782;28;1229;-53
2022/02/03 07:14:39;;;;;;;;;;;;;;;18.06;36.43;100497.78;5013414;28;1301;-55
2022/02/03 07:17:05;;;;;;;;;;;;;;;18.00;36.71;100505.25;5008802;28;1310;-55
2022/02/03 07:19:35;;;;;;;;;;;;;;;18.03;36.75;100510.19;5009520;28;1238;-54
2022/02/03 07:22:00;;;;;;;;;;;;;;;18.00;36.91;100513.50;4999574;28;1392;-54
2022/02/03 07:24:26;;;;;;;;;;;;;;;18.15;36.67;100528.25;5004227;28;1305;-55
2022/02/03 07:26:51;;;;;;;;;;;;;;;18.05;36.71;100526.41;5009874;28;1906;-55
2022/02/03 07:29:17;;;;;;;;;;;;;;;18.08;36.86;100539.59;5001929;28;1046;-54
2022/02/03 07:31:42;;;;;;;;;;;;;;;18.05;36.66;100518.16;5009542;28;1173;-55
2022/02/03 07:34:14;;;;;;;;;;;;;;;18.21;36.43;100527.06;5011881;28;1249;-55
2022/02/03 07:36:39;;;;;;;;;;;;;;;18.11;36.95;100520.56;5009304;28;1153;-55
2022/02/03 07:39:06;;;;;;;;;;;;;;;18.16;36.86;100519.72;5005506;28;1360;-55
2022/02/03 07:41:31;;;;;;;;;;;;;;;18.18;36.69;100522.16;4999002;28;1440;-56
2022/02/03 07:43:57;;;;;;;;;;;;;;;18.04;36.85;100514.56;5009051;28;1427;-54
2022/02/03 07:46:22;;;;;;;;;;;;;;;18.10;37.08;100526.34;5011182;28;1918;-57
2022/02/03 07:48:53;;;;;;;;;;;;;;;17.98;37.33;100528.66;5009315;28;1192;-58
2022/02/03 07:51:18;;;;;;;;;;;;;;;18.21;36.59;100532.59;5002618;28;1550;-57
2022/02/03 07:53:44;;;;;;;;;;;;;;;18.12;36.65;100537.91;5009978;28;1447;-59
2022/02/03 07:56:09;;;;;;;;;;;;;;;18.05;36.85;100531.91;5009172;28;1322;-56
2022/02/03 07:58:35;;;;;;;;;;;;;;;18.06;36.66;100531.63;5004879;28;1317;-58
2022/02/03 08:01:00;;;;;;;;;;;;;;;18.01;37.11;100533.59;4998522;28;1198;-55
2022/02/03 08:03:26;;;;;;;;;;;;;;;18.23;36.51;100533.09;4989944;28;1308;-56
2022/02/03 08:05:58;;;;;;;;;;;;;;;18.10;36.77;100543.69;5006995;28;1968;-56
2022/02/03 08:08:29;;;;;;;;;;;;;;;18.37;36.18;100542.34;5003614;28;1292;-56
2022/02/03 08:11:05;;;;;;;;;;;;;;;18.29;36.59;100551.22;4998397;28;1080;-55
2022/02/03 08:13:38;;;;;;;;;;;;;;;18.22;36.53;100556.25;5008408;28;1360;-56
2022/02/03 08:16:11;;;;;;;;;;;;;;;18.08;36.70;100551.41;5008850;28;1499;-58
2022/02/03 08:18:39;;;;;;;;;;;;;;;18.24;36.61;100556.75;5011506;28;1215;-56
2022/02/03 08:21:07;;;;;;;;;;;;;;;18.20;36.70;100558.44;5012293;28;1179;-58
2022/02/03 08:26:48;;;;;;;;;;;;;;;18.20;36.50;100558.44;5004885;28;1973;-59
2022/02/03 08:29:10;;;;;;;;;;;;;;;18.22;36.36;100553.50;4988037;28;1532;-57
2022/02/03 08:34:04;;;;;;;;;;;;;;;18.19;36.78;100568.66;5011481;28;1399;-56
2022/02/03 08:36:34;;;;;;;;;;;;;;;18.23;36.25;100561.47;5013131;28;1202;-57
2022/02/03 08:39:05;;;;;;;;;;;;;;;18.21;36.42;100573.88;5004642;28;1449;-57
2022/02/03 08:41:30;;;;;;;;;;;;;;;18.38;36.10;100570.66;5012521;28;1040;-58
2022/02/03 08:43:56;;;;;;;;;;;;;;;18.31;36.20;100584.75;5016831;28;956;-57
2022/02/03 08:46:25;;;;;;;;;;;;;;;18.12;36.90;100585.50;5010232;28;1918;-56
2022/02/03 08:48:50;;;;;;;;;;;;;;;18.08;36.83;100591.88;4999404;28;874;-56
2022/02/03 08:51:16;;;;;;;;;;;;;;;18.08;36.83;100600.94;5016746;28;1111;-56
2022/02/03 08:54:07;;;;;;;;;;;;;;;18.28;36.26;100594.41;5015093;28;1420;-56
2022/02/03 09:37:14;;;;;;;;;;;;;;;17.95;36.56;100609.88;5007258;28;1286;-54
2022/02/03 09:50:22;;;;;;;;;;;;;;;18.03;36.24;100609.22;5013303;28;1282;-55
2022/02/03 09:58:38;;;;;;;;;;;;;;;18.02;35.93;100604.84;5005347;28;1305;-56
2022/02/03 10:01:07;;;;;;;;;;;;;;;18.11;36.22;100600.34;5009855;28;928;-56
2022/02/03 10:06:20;;;;;;;;;;;;;;;18.09;36.16;100613.59;5002798;28;1995;-57
2022/02/03 10:08:54;;;;;;;;;;;;;;;17.98;36.41;100611.19;5011171;28;1436;-54
2022/02/03 10:11:20;;;;;;;;;;;;;;;18.00;36.07;100620.81;5009555;28;1257;-55
2022/02/03 10:13:47;;;;;;;;;;;;;;;18.03;36.24;100622.97;5009980;28;1364;-54
2022/02/03 10:16:14;;;;;;;;;;;;;;;18.00;36.15;100623.56;5002360;28;1458;-54
2022/02/03 10:18:40;;;;;;;;;;;;;;;18.17;35.82;100638.84;5004490;28;1490;-55
2022/02/03 10:21:09;;;;;;;;;;;;;;;18.12;35.87;100635.03;5007045;28;975;-56
2022/02/03 10:23:41;;;;;;;;;;;;;;;18.15;35.78;100649.34;5006120;28;1244;-55
2022/02/03 10:26:07;;;;;;;;;;;;;;;18.26;35.62;100650.88;4983745;28;1910;-55
2022/02/03 10:28:35;;;;;;;;;;;;;;;18.04;36.25;100641.13;5004083;28;1116;-56
2022/02/03 10:31:02;;;;;;;;;;;;;;;18.24;35.98;100653.09;5003427;28;1057;-54
2022/02/03 10:33:31;;;;;;;;;;;;;;;18.32;35.60;100660.75;4998381;28;879;-54
2022/02/03 10:36:01;;;;;;;;;;;;;;;18.32;35.84;100659.94;5008059;28;1340;-58
2022/02/03 10:46:40;;;;;;;;;;;;;;;18.39;35.64;100669.47;5007291;28;2003;-57
2022/02/03 10:52:27;;;;;;;;;;;;;;;18.26;36.18;100667.41;5004217;28;1455;-56
2022/02/03 10:57:16;;;;;;;;;;;;;;;18.19;36.05;100677.91;5007150;28;1458;-55
2022/02/03 11:06:07;;;;;;;;;;;;;;;18.32;36.19;100665.44;4980651;28;1983;-57
2022/02/03 11:10:38;;;;;;;;;;;;;;;18.42;35.95;100679.91;5013580;28;1364;-54
2022/02/03 11:13:04;;;;;;;;;;;;;;;18.34;36.05;100687.97;5009880;28;1563;-54
2022/02/03 11:15:30;;;;;;;;;;;;;;;18.38;35.84;100678.84;5004847;28;1084;-54
2022/02/03 11:17:57;;;;;;;;;;;;;;;18.22;36.09;100693.84;5007404;28;1557;-55
2022/02/03 11:20:23;;;;;;;;;;;;;;;18.21;35.92;100694.97;5005726;28;1384;-54
2022/02/03 11:25:45;;;;;;;;;;;;;;;18.28;36.23;100703.72;5004517;28;1907;-54
2022/02/03 11:29:11;;;;;;;;;;;;;;;18.27;35.90;100702.91;4988199;28;1546;-54
2022/02/03 11:47:43;;;;;;;;;;;;;;;18.12;36.61;100723.09;4952896;28;1414;-55
2022/02/03 11:50:56;;;;;;;;;;;;;;;18.12;36.77;100738.78;5006206;28;1351;-55
2022/02/03 11:56:22;;;;;;;;;;;;;;;18.20;36.43;100740.09;5011383;28;1188;-56
2022/02/03 12:01:37;;;;;;;;;;;;;;;18.16;36.38;100752.78;5002932;28;1217;-55
2022/02/03 12:20:31;;;;;;;;;;;;;;;18.02;36.59;100791.94;5005758;28;1246;-57
2022/02/03 12:23:12;;;;;;;;;;;;;;;18.05;36.71;100788.63;5010294;28;1191;-54
2022/02/03 12:25:45;;;;;;;;;;;;;;;18.18;36.34;100791.88;4999605;28;1922;-56
2022/02/03 12:38:55;;;;;;;;;;;;;;;18.13;36.43;100812.78;5000162;28;1488;-56
2022/02/03 12:41:35;;;;;;;;;;;;;;;18.15;36.12;100808.94;4999944;28;1340;-55
2022/02/03 12:44:05;;;;;;;;;;;;;;;18.13;36.02;100812.78;5000387;28;932;-57
2022/02/03 12:46:31;;;;;;;;;;;;;;;18.08;36.11;100810.06;5012784;28;1914;-56
2022/02/03 12:48:57;;;;;;;;;;;;;;;18.15;36.15;100814.44;5008989;28;1649;-54
2022/02/03 12:51:23;;;;;;;;;;;;;;;18.02;36.56;100822.22;5010975;28;1178;-55
2022/02/03 12:53:48;;;;;;;;;;;;;;;18.02;36.36;100815.88;4983651;28;1153;-55
2022/02/03 12:56:13;;;;;;;;;;;;;;;18.08;36.31;100818.31;5001061;28;1211;-55
2022/02/03 12:58:45;;;;;;;;;;;;;;;18.06;36.32;100825.19;5008017;28;1388;-54
2022/02/03 13:01:14;;;;;;;;;;;;;;;18.05;36.47;100821.63;5001835;28;1232;-55
2022/02/03 13:03:45;;;;;;;;;;;;;;;18.04;36.78;100830.19;5000758;28;954;-56
2022/02/03 13:06:19;;;;;;;;;;;;;;;18.19;36.57;100837.53;5011495;28;1961;-55
2022/02/03 13:08:47;;;;;;;;;;;;;;;18.21;36.34;100833.38;5011962;28;1323;-57
2022/02/03 13:16:49;;;;;;;;;;;;;;;17.84;37.08;100848.38;4996957;28;1420;-56
2022/02/03 13:19:20;;;;;;;;;;;;;;;17.87;37.02;100858.00;5005407;28;1252;-57
2022/02/03 13:26:52;;;;;;;;;;;;;;;17.93;37.21;100852.22;5008378;28;1898;-56
2022/02/03 13:29:49;;;;;;;;;;;;;;;17.87;37.50;100858.00;4992373;28;976;-56
2022/02/03 13:32:07;;;;;;;;;;;;;;;17.71;37.58;100847.06;5013433;28;1261;-58
2022/02/03 13:34:40;;;;;;;;;;;;;;;17.92;37.24;100844.25;5016177;28;1135;-55
2022/02/03 13:37:24;;;;;;;;;;;;;;;17.84;37.26;100847.53;5001546;28;1092;-59
2022/02/03 13:40:11;;;;;;;;;;;;;;;17.69;37.72;100849.25;5009045;28;1037;-57
2022/02/03 13:42:38;;;;;;;;;;;;;;;17.77;37.50;100836.84;5015978;28;1187;-56
2022/02/03 13:45:07;;;;;;;;;;;;;;;17.74;37.37;100846.50;5008918;28;1904;-56
2022/02/03 13:47:35;;;;;;;;;;;;;;;17.78;37.41;100847.56;5013947;28;1334;-55
2022/02/03 13:50:15;;;;;;;;;;;;;;;17.74;37.55;100849.25;4980605;28;1143;-54
2022/02/03 14:15:04;;;;;;;;;;;;;;;17.74;37.40;100871.25;5011363;28;1176;-55
2022/02/03 14:28:11;;;;;;;;;;;;;;;17.73;37.54;100888.84;4981314;28;1409;-59
2022/02/03 14:30:43;;;;;;;;;;;;;;;18.02;37.02;100885.50;4994318;28;1590;-58
2022/02/03 14:33:08;;;;;;;;;;;;;;;17.83;37.40;100887.19;4987728;28;1379;-56
2022/02/03 14:35:33;;;;;;;;;;;;;;;17.57;37.77;100888.06;4998147;28;1162;-55
2022/02/03 14:38:13;;;;;;;;;;;;;;;17.55;37.71;100898.50;4978365;28;1361;-56
2022/02/03 14:41:10;;;;;;;;;;;;;;;17.69;37.80;100895.19;4982690;28;1236;-64
2022/02/03 14:43:25;;;;;;;;;;;;;;;17.74;37.65;100897.91;4990291;28;1484;-59
2022/02/03 14:45:51;;;;;;;;;;;;;;;17.80;37.48;100905.06;4986746;28;1910;-61
2022/02/03 14:48:16;;;;;;;;;;;;;;;17.93;37.17;100903.66;4988976;28;1408;-66
2022/02/03 14:50:45;;;;;;;;;;;;;;;18.03;36.95;100909.13;4996673;28;1207;-63
2022/02/03 14:53:17;;;;;;;;;;;;;;;17.95;37.23;100915.25;4993404;28;1354;-64
2022/02/03 14:58:29;;;;;;;;;;;;;;;17.98;37.14;100909.16;4979557;28;1250;-59
2022/02/03 15:00:56;;;;;;;;;;;;;;;18.06;36.90;100913.25;4981457;28;1219;-60
2022/02/03 15:03:23;;;;;;;;;;;;;;;17.99;36.93;100910.78;4984557;28;1094;-61
2022/02/03 15:05:49;;;;;;;;;;;;;;;18.08;36.89;100909.13;4995971;28;1902;-60
2022/02/03 15:08:20;;;;;;;;;;;;;;;18.16;36.63;100913.25;4981104;28;816;-61
2022/02/03 15:11:08;;;;;;;;;;;;;;;18.06;36.72;100905.84;4975842;28;771;-60
2022/02/03 15:13:46;;;;;;;;;;;;;;;18.10;36.93;100911.59;4978589;28;814;-59
2022/02/03 15:16:12;;;;;;;;;;;;;;;18.10;36.84;100917.09;4978491;28;739;-59
2022/02/03 15:18:38;;;;;;;;;;;;;;;18.17;36.54;100933.31;4981334;28;1143;-65
2022/02/03 15:21:06;;;;;;;;;;;;;;;18.18;36.80;100934.97;4992131;28;853;-60
2022/02/03 15:23:32;;;;;;;;;;;;;;;18.19;36.48;100933.84;4984558;28;998;-61
2022/02/03 15:25:57;;;;;;;;;;;;;;;18.28;36.19;100940.44;5004579;28;1906;-60
2022/02/03 15:28:23;;;;;;;;;;;;;;;18.11;36.81;100936.06;4997626;28;747;-65
2022/02/03 15:30:50;;;;;;;;;;;;;;;18.09;36.80;100937.47;5003910;28;1052;-59
2022/02/03 15:33:16;;;;;;;;;;;;;;;18.24;36.22;100942.09;4998148;28;743;-59
2022/02/03 15:35:49;;;;;;;;;;;;;;;18.26;36.33;100957.22;4999827;28;778;-58
2022/02/03 15:38:20;;;;;;;;;;;;;;;18.22;36.36;100949.81;4996983;28;1377;-59
2022/02/03 15:40:47;;;;;;;;;;;;;;;18.15;36.81;100957.56;4997483;28;850;-59
2022/02/03 15:43:38;;;;;;;;;;;;;;;18.24;36.32;100962.22;4996835;28;850;-58
2022/02/03 15:46:02;;;;;;;;;;;;;;;18.27;36.54;100972.66;5002161;28;1996;-59
2022/02/03 15:48:46;;;;;;;;;;;;;;;18.20;36.34;100963.88;4996910;28;833;-64
2022/02/03 16:17:49;;;;;;;;;;;;;;;18.33;36.44;101013.91;5012831;28;1010;-68
2022/02/03 16:20:23;;;;;;;;;;;;;;;18.40;35.88;101023.53;5015242;28;832;-66
2022/02/03 16:42:57;;;;;;;;;;;;;;;18.37;36.22;101048.03;4998652;28;1230;-61
2022/02/03 16:52:54;;;;;;;;;;;;;;;18.33;35.96;101075.31;5003777;28;1367;-65
2022/02/03 16:55:23;;;;;;;;;;;;;;;18.42;35.81;101062.63;5000991;28;1481;-65
2022/02/03 16:57:51;;;;;;;;;;;;;;;18.37;36.06;101059.03;5013541;28;1249;-62
2022/02/03 17:00:17;;;;;;;;;;;;;;;18.38;35.89;101075.28;5007937;28;1323;-61
2022/02/03 17:02:43;;;;;;;;;;;;;;;18.46;35.84;101088.47;5005062;28;1344;-62
2022/02/03 17:05:09;;;;;;;;;;;;;;;18.49;35.58;101072.53;4999936;28;823;-62
2022/02/03 17:07:34;;;;;;;;;;;;;;;18.51;35.75;101064.78;4999714;28;1971;-59
2022/02/03 17:10:00;;;;;;;;;;;;;;;18.39;35.94;101087.94;5000312;28;803;-61
2022/02/03 17:12:25;;;;;;;;;;;;;;;18.46;36.12;101088.47;5000258;28;825;-59
2022/02/03 17:14:51;;;;;;;;;;;;;;;18.38;36.07;101089.06;5005011;28;1212;-58
2022/02/03 17:17:19;;;;;;;;;;;;;;;18.50;35.75;101091.53;5004394;28;1517;-59
2022/02/03 17:19:45;;;;;;;;;;;;;;;18.69;35.64;101085.41;5000001;28;897;-60
2022/02/03 17:22:12;;;;;;;;;;;;;;;18.51;35.88;101073.91;4999146;28;878;-58
2022/02/03 17:24:41;;;;;;;;;;;;;;;18.51;35.59;101073.91;5001998;28;1467;-62
2022/02/03 17:27:14;;;;;;;;;;;;;;;18.26;36.42;101094.88;5009323;28;1913;-63
2022/02/03 17:30:17;;;;;;;;;;;;;;;18.14;36.36;101088.81;5007105;28;1117;-61
2022/02/03 18:10:49;;;;;;;;;;;;;;;18.05;36.54;101101.50;5011168;28;813;-60
2022/02/03 18:48:21;;;;;;;;;;;;;;;17.82;37.06;101130.34;5017010;28;2004;-62
2022/02/03 18:50:28;;;;;;;;;;;;;;;17.63;37.22;101139.09;5007699;28;1617;-61
2022/02/03 18:53:06;;;;;;;;;;;;;;;17.64;37.25;101132.50;4997495;28;830;-63
2022/02/03 18:58:38;;;;;;;;;;;;;;;17.55;37.42;101137.69;4992435;28;1237;-61
2022/02/03 19:01:20;;;;;;;;;;;;;;;17.58;37.03;101148.16;5000926;28;809;-61
2022/02/03 19:09:52;;;;;;;;;;;;;;;17.40;37.77;101143.16;4997836;28;715;-60
2022/02/03 20:08:37;;;;;;;;;;;;;;;17.63;37.12;101183.09;4996974;28;782;-61
2022/02/03 20:11:03;;;;;;;;;;;;;;;17.40;37.49;101184.41;4995171;28;945;-60
2022/02/03 20:13:28;;;;;;;;;;;;;;;17.37;37.55;101179.44;5012996;28;1041;-64
2022/02/03 20:15:54;;;;;;;;;;;;;;;17.35;37.57;101187.97;5004250;28;857;-63
2022/02/03 20:18:20;;;;;;;;;;;;;;;17.30;37.59;101185.19;4996424;28;864;-62
2022/02/03 20:20:46;;;;;;;;;;;;;;;17.55;37.10;101186.38;4996518;28;1057;-60
2022/02/03 20:23:14;;;;;;;;;;;;;;;17.93;36.51;101198.88;4996343;28;941;-60
2022/02/03 20:25:44;;;;;;;;;;;;;;;18.26;35.62;101201.41;5005916;28;1918;-63
2022/02/03 20:28:10;;;;;;;;;;;;;;;18.43;35.31;101207.44;4998318;28;900;-62
2022/02/03 20:30:35;;;;;;;;;;;;;;;18.56;34.88;101213.50;5001365;28;825;-62
2022/02/03 20:33:01;;;;;;;;;;;;;;;18.70;34.87;101220.09;4996134;28;889;-63
2022/02/03 20:35:26;;;;;;;;;;;;;;;18.86;34.40;101214.56;4996235;28;798;-63
2022/02/03 20:37:52;;;;;;;;;;;;;;;17.64;36.54;101208.69;4996669;28;790;-62
2022/02/03 20:40:18;;;;;;;;;;;;;;;17.06;38.09;101226.84;5006227;28;891;-64
2022/02/03 20:42:43;;;;;;;;;;;;;;;17.29;37.72;101224.75;5006270;28;788;-63
2022/02/03 20:45:08;;;;;;;;;;;;;;;17.48;37.35;101232.56;5003800;28;799;-62
2022/02/03 20:47:34;;;;;;;;;;;;;;;17.40;37.47;101231.97;4998907;28;1906;-62
2022/02/03 20:50:00;;;;;;;;;;;;;;;17.30;37.51;101231.91;5000562;28;866;-62
2022/02/03 20:52:25;;;;;;;;;;;;;;;17.64;36.80;101234.25;5000692;28;778;-61
2022/02/03 20:54:51;;;;;;;;;;;;;;;18.04;36.03;101237.44;5006257;28;767;-63
2022/02/03 20:57:16;;;;;;;;;;;;;;;18.39;35.28;101242.13;5018908;28;782;-62
2022/02/03 20:59:57;;;;;;;;;;;;;;;18.71;34.70;101246.56;5012988;28;893;-65
2022/02/03 21:03:02;;;;;;;;;;;;;;;18.99;34.23;101236.06;5014064;28;806;-63
2022/02/03 21:05:16;;;;;;;;;;;;;;;17.36;37.21;101238.25;5000868;28;1389;-63
2022/02/03 21:07:49;;;;;;;;;;;;;;;17.15;37.66;101243.63;5005700;28;1911;-64
2022/02/03 21:10:18;;;;;;;;;;;;;;;17.31;37.65;101238.25;5004957;28;806;-64
2022/02/03 21:12:43;;;;;;;;;;;;;;;17.44;37.38;101240.50;5017502;28;853;-64
2022/02/03 21:15:10;;;;;;;;;;;;;;;17.63;36.97;101240.84;5012866;28;905;-63
2022/02/03 21:17:36;;;;;;;;;;;;;;;17.98;36.23;101239.34;5004640;28;823;-63
2022/02/03 21:20:23;;;;;;;;;;;;;;;18.27;35.97;101241.56;5017206;28;1270;-63
2022/02/03 21:22:48;;;;;;;;;;;;;;;18.51;35.51;101232.78;5017907;28;1528;-65
2022/02/03 21:25:37;;;;;;;;;;;;;;;18.58;35.35;101236.06;5010932;28;1062;-64
2022/02/03 21:28:08;;;;;;;;;;;;;;;18.75;34.86;101235.81;4999491;28;831;-64
2022/02/03 21:30:33;;;;;;;;;;;;;;;18.69;35.27;101226.72;5007363;28;872;-64
2022/02/03 21:32:59;;;;;;;;;;;;;;;18.66;35.23;101221.75;4999453;28;836;-62
2022/02/03 21:35:26;;;;;;;;;;;;;;;18.54;35.17;101212.97;4996794;28;798;-63
2022/02/03 21:37:51;;;;;;;;;;;;;;;18.55;35.50;101209.09;5001951;28;1246;-64
2022/02/03 21:40:17;;;;;;;;;;;;;;;18.45;35.70;101230.03;5006723;28;1330;-64
2022/02/03 21:42:42;;;;;;;;;;;;;;;18.05;36.36;101250.91;5011559;28;1267;-64
2022/02/03 21:45:08;;;;;;;;;;;;;;;17.64;37.29;101261.75;5016839;28;1255;-65
2022/02/03 21:47:34;;;;;;;;;;;;;;;17.20;37.77;101267.59;5016340;28;1913;-64
2022/02/03 21:49:59;;;;;;;;;;;;;;;17.87;36.81;101267.91;5017158;28;738;-64
2022/02/03 21:52:33;;;;;;;;;;;;;;;18.09;36.37;101267.69;5018310;28;742;-65
2022/02/03 21:54:59;;;;;;;;;;;;;;;18.25;35.95;101269.38;5017902;28;842;-64
2022/02/03 21:57:25;;;;;;;;;;;;;;;18.34;35.64;101264.19;5002224;28;853;-64
2022/02/03 21:59:52;;;;;;;;;;;;;;;18.40;35.55;101263.06;4999640;28;885;-64
2022/02/03 22:02:17;;;;;;;;;;;;;;;18.43;35.62;101272.72;4999062;28;750;-64
2022/02/03 22:04:43;;;;;;;;;;;;;;;18.41;35.64;101277.66;4999175;28;735;-64
2022/02/03 22:07:08;;;;;;;;;;;;;;;18.44;35.40;101275.19;5013053;28;1918;-65
2022/02/03 22:09:37;;;;;;;;;;;;;;;18.52;35.31;101273.81;5010111;28;786;-61
2022/02/03 22:12:03;;;;;;;;;;;;;;;18.54;35.33;101268.06;4998158;28;893;-64
2022/02/03 22:14:28;;;;;;;;;;;;;;;18.68;34.94;101269.16;5011187;28;1223;-63
2022/02/03 22:16:54;;;;;;;;;;;;;;;17.53;37.40;101268.28;4998200;28;807;-64
2022/02/03 22:19:19;;;;;;;;;;;;;;;17.65;37.06;101268.09;4998369;28;791;-64
2022/02/03 22:21:54;;;;;;;;;;;;;;;17.61;37.17;101276.03;5000243;28;802;-60
2022/02/03 22:25:15;;;;;;;;;;;;;;;17.44;37.57;101276.25;4997681;28;971;-63
2022/02/03 22:48:43;;;;;;;;;;;;;;;17.27;37.83;101296.47;4980191;28;1005;-59
2022/02/03 22:51:09;;;;;;;;;;;;;;;18.24;35.98;101288.94;4998136;28;775;-59
2022/02/03 22:53:35;;;;;;;;;;;;;;;17.80;36.63;101292.91;5017127;28;820;-60
2022/02/03 22:56:05;;;;;;;;;;;;;;;17.38;37.53;101286.38;5016683;28;841;-59
2022/02/03 23:01:25;;;;;;;;;;;;;;;16.93;37.97;101274.00;4964614;28;1217;-62
2022/02/03 23:03:50;;;;;;;;;;;;;;;16.65;38.05;101288.84;4997787;28;890;-60
2022/02/03 23:06:16;;;;;;;;;;;;;;;17.28;37.70;101291.84;4997847;28;1977;-61
2022/02/03 23:14:25;;;;;;;;;;;;;;;17.47;37.22;101299.63;5000040;28;858;-60
2022/02/03 23:22:13;;;;;;;;;;;;;;;16.85;38.08;101311.00;5015152;28;775;-60
2022/02/03 23:24:39;;;;;;;;;;;;;;;16.86;38.14;101317.34;5015858;28;1033;-61
2022/02/03 23:29:57;;;;;;;;;;;;;;;17.56;37.10;101317.28;4987778;28;998;-61
2022/02/03 23:32:23;;;;;;;;;;;;;;;17.30;37.51;101308.06;4996923;28;799;-60
2022/02/03 23:35:37;;;;;;;;;;;;;;;17.05;37.82;101309.53;4997790;28;835;-60
2022/02/03 23:37:38;;;;;;;;;;;;;;;16.86;38.06;101328.31;4994342;28;1337;-61
2022/02/03 23:40:10;;;;;;;;;;;;;;;17.62;36.95;101314.25;5015848;28;1347;-60
